Terminal Aerodrome Forecast
Issued by NWS Jackson, KY

Home | Current Version | Previous Version | Text Only | Print | Product List | Glossary On
Versions: 1 2 3 4 5 6 7 8 9 10 11 12 13 14 15 16 17 18 19 20 21 22 23 24 25 26 27
000
FTUS43 KJKL 240500
TAFJKL
TAF
KJKL 240537Z 2406/2506 VRB03KT 3SM BR VCSH SCT002 BKN040 OVC070
      TEMPO 2406/2409 1/2SM FG BKN002 OVC010
     FM240900 VRB03KT 3SM BR VCSH SCT004 BKN010 OVC020
     FM241400 VRB05KT P6SM VCSH BKN020 OVC040
     FM242200 VRB04KT P6SM SCT020 BKN040=

USA.gov is the U.S. government's official web portal to all federal, state and local government web resources and services.